createdAt,value
2017-11-19T00:00:39.282Z,93.9
2017-11-19T00:01:40.821Z,94.0
2017-11-19T00:02:42.371Z,93.7
2017-11-19T00:03:43.926Z,93.9
2017-11-19T00:04:45.488Z,94.0
2017-11-19T00:05:47.073Z,93.6
2017-11-19T00:06:48.597Z,94.0
2017-11-19T00:07:50.779Z,93.6
2017-11-19T00:08:52.323Z,93.5
2017-11-19T00:09:53.889Z,93.5
2017-11-19T00:10:55.412Z,94.0
2017-11-19T00:11:56.996Z,94.0
2017-11-19T00:12:58.621Z,94.0
2017-11-19T00:14:00.156Z,93.8
2017-11-19T00:15:01.720Z,94.0
2017-11-19T00:16:03.288Z,94.4
2017-11-19T00:17:04.840Z,94.1
2017-11-19T00:18:06.352Z,94.0
2017-11-19T00:19:07.905Z,94.3
2017-11-19T00:20:09.422Z,94.1
2017-11-19T00:21:10.944Z,94.7
2017-11-19T00:22:12.452Z,94.2
2017-11-19T00:23:13.964Z,94.7
2017-11-19T00:24:15.479Z,94.8
2017-11-19T00:25:17.052Z,95.1
2017-11-19T00:26:18.557Z,94.9
2017-11-19T00:27:20.020Z,95.1
2017-11-19T00:28:21.576Z,94.9
2017-11-19T00:29:23.089Z,95.0
2017-11-19T00:30:24.601Z,94.8
2017-11-19T00:31:26.142Z,95.0
2017-11-19T00:32:27.664Z,94.7
2017-11-19T00:33:29.184Z,95.0
2017-11-19T00:34:30.696Z,94.9
2017-11-19T00:35:32.278Z,94.9
2017-11-19T00:36:33.776Z,95.0
2017-11-19T00:37:35.289Z,95.0
2017-11-19T00:38:36.799Z,95.2
2017-11-19T00:39:38.355Z,95.3
2017-11-19T00:40:39.910Z,95.3
2017-11-19T00:41:41.485Z,94.7
2017-11-19T00:42:43.026Z,94.7
2017-11-19T00:43:44.570Z,94.3
2017-11-19T00:44:46.129Z,94.0
2017-11-19T00:45:47.663Z,94.4
2017-11-19T00:46:49.195Z,93.9
2017-11-19T00:47:50.719Z,93.9
2017-11-19T00:48:52.277Z,93.0
2017-11-19T00:49:53.809Z,93.8
2017-11-19T00:50:55.344Z,93.6
2017-11-19T00:51:56.894Z,93.8
2017-11-19T00:52:58.394Z,93.8
2017-11-19T00:53:59.924Z,93.0
2017-11-19T00:55:01.424Z,93.6
2017-11-19T00:56:02.979Z,93.6
2017-11-19T00:57:04.473Z,94.0
2017-11-19T00:58:05.972Z,93.5
2017-11-19T00:59:07.520Z,93.8
2017-11-19T01:00:09.066Z,93.7
2017-11-19T01:01:10.567Z,93.6
2017-11-19T01:02:12.102Z,93.7
2017-11-19T01:03:13.622Z,93.5
2017-11-19T01:04:15.129Z,93.1
2017-11-19T01:05:16.666Z,93.3
2017-11-19T01:06:18.218Z,93.5
2017-11-19T01:07:19.789Z,93.1
2017-11-19T01:08:21.294Z,93.0
2017-11-19T01:09:22.818Z,92.6
2017-11-19T01:10:24.360Z,93.0
2017-11-19T01:11:25.938Z,92.9
2017-11-19T01:12:27.475Z,92.8
2017-11-19T01:13:28.998Z,92.7
2017-11-19T01:14:30.526Z,92.5
2017-11-19T01:15:32.045Z,92.8
2017-11-19T01:16:33.546Z,92.5
2017-11-19T01:17:35.111Z,92.8
2017-11-19T01:18:36.618Z,92.4
2017-11-19T01:19:38.157Z,92.4
2017-11-19T01:20:39.677Z,92.3
2017-11-19T01:21:41.186Z,92.3
2017-11-19T01:22:42.683Z,91.9
2017-11-19T01:23:44.220Z,92.4
2017-11-19T01:24:45.716Z,92.2
2017-11-19T01:25:47.193Z,92.1
2017-11-19T01:26:48.722Z,92.4
2017-11-19T01:27:50.216Z,92.3
2017-11-19T01:28:51.737Z,91.9
2017-11-19T01:29:53.273Z,91.9
2017-11-19T01:30:54.825Z,92.5
2017-11-19T01:31:56.357Z,92.3
2017-11-19T01:32:57.843Z,92.5
2017-11-19T01:33:59.370Z,92.2
2017-11-19T01:35:00.902Z,92.3
2017-11-19T01:36:02.366Z,92.1
2017-11-19T01:37:03.892Z,92.1
2017-11-19T01:38:05.377Z,92.4
2017-11-19T01:39:06.886Z,92.4
2017-11-19T01:40:08.368Z,92.4
2017-11-19T01:41:09.893Z,92.4
2017-11-19T01:42:11.396Z,91.9
2017-11-19T01:43:12.960Z,91.9
2017-11-19T01:44:14.448Z,91.9
2017-11-19T01:45:15.969Z,92.1
2017-11-19T01:46:17.458Z,92.3
2017-11-19T01:47:19.772Z,92.1
2017-11-19T01:48:21.314Z,92.3
2017-11-19T01:49:22.810Z,92.5
2017-11-19T01:50:24.344Z,92.3
2017-11-19T01:51:25.835Z,92.3
2017-11-19T01:52:27.355Z,92.5
2017-11-19T01:53:28.871Z,92.7
2017-11-19T01:54:30.375Z,92.5
2017-11-19T01:55:31.891Z,92.3
2017-11-19T01:56:33.408Z,92.4
2017-11-19T01:57:34.897Z,92.3
2017-11-19T01:58:36.412Z,92.3
2017-11-19T01:59:37.930Z,91.9
2017-11-19T02:00:39.408Z,92.3
2017-11-19T02:01:40.890Z,92.3
2017-11-19T02:02:42.416Z,92.3
2017-11-19T02:03:43.908Z,91.9
2017-11-19T02:04:45.477Z,91.9
2017-11-19T02:05:46.984Z,91.8
2017-11-19T02:06:48.481Z,91.4
2017-11-19T02:07:49.968Z,91.3
2017-11-19T02:08:51.513Z,91.4
2017-11-19T02:09:53.033Z,91.1
2017-11-19T02:10:54.521Z,91.4
2017-11-19T02:11:56.085Z,90.8
2017-11-19T02:12:57.603Z,90.8
2017-11-19T02:13:59.067Z,90.4
2017-11-19T02:15:00.557Z,90.3
2017-11-19T02:16:02.048Z,90.1
2017-11-19T02:17:03.568Z,90.1
2017-11-19T02:18:05.052Z,90.2
2017-11-19T02:19:06.561Z,89.8
2017-11-19T02:20:08.065Z,90.7
2017-11-19T02:21:09.557Z,90.2
2017-11-19T02:22:11.106Z,89.9
2017-11-19T02:23:12.612Z,89.9
2017-11-19T02:24:14.125Z,90.2
2017-11-19T02:25:15.660Z,90.2
2017-11-19T02:26:17.167Z,90.1
2017-11-19T02:27:18.664Z,90.4
2017-11-19T02:28:20.207Z,89.9
2017-11-19T02:29:21.700Z,90.2
2017-11-19T02:30:23.215Z,90.8
2017-11-19T02:31:24.720Z,90.8
2017-11-19T02:32:26.231Z,90.6
2017-11-19T02:33:27.766Z,90.7
2017-11-19T02:34:29.293Z,90.8
2017-11-19T02:35:30.792Z,91.3
2017-11-19T02:36:32.329Z,91.4
2017-11-19T02:37:33.802Z,91.2
2017-11-19T02:38:35.330Z,91.7
2017-11-19T02:39:36.820Z,91.6
2017-11-19T02:40:38.349Z,91.6
2017-11-19T02:41:39.868Z,91.7
2017-11-19T02:42:41.350Z,91.8
2017-11-19T02:43:42.868Z,92.0
2017-11-19T02:44:44.398Z,92.1
2017-11-19T02:45:45.924Z,91.9
2017-11-19T02:46:47.441Z,92.4
2017-11-19T02:47:49.022Z,92.4
2017-11-19T02:48:50.513Z,92.3
2017-11-19T02:49:52.011Z,92.3
2017-11-19T02:50:53.497Z,92.7
2017-11-19T02:51:54.993Z,92.6
2017-11-19T02:52:56.536Z,92.7
2017-11-19T02:53:58.057Z,92.6
2017-11-19T02:54:59.573Z,93.2
2017-11-19T02:56:01.830Z,93.1
2017-11-19T02:57:03.312Z,92.9
2017-11-19T02:58:04.829Z,92.8
2017-11-19T02:59:06.324Z,92.9
2017-11-19T03:00:07.826Z,93.0
2017-11-19T03:01:09.276Z,93.5
2017-11-19T03:02:10.776Z,93.0
2017-11-19T03:03:12.362Z,92.7
2017-11-19T03:04:13.901Z,92.9
2017-11-19T03:05:15.441Z,92.8
2017-11-19T03:06:16.929Z,93.2
2017-11-19T03:07:18.472Z,93.2
2017-11-19T03:08:19.958Z,93.4
2017-11-19T03:09:21.525Z,93.2
2017-11-19T03:10:23.013Z,93.6
2017-11-19T03:11:24.506Z,93.4
2017-11-19T03:12:26.045Z,93.2
2017-11-19T03:13:27.583Z,93.0
2017-11-19T03:14:29.133Z,93.4
2017-11-19T03:15:30.659Z,92.7
2017-11-19T03:16:32.134Z,92.9
2017-11-19T03:17:33.626Z,92.8
2017-11-19T03:18:35.159Z,92.8
2017-11-19T03:19:36.686Z,92.9
2017-11-19T03:20:38.250Z,92.8
2017-11-19T03:21:39.778Z,92.8
2017-11-19T03:22:41.322Z,92.8
2017-11-19T03:23:42.773Z,92.9
2017-11-19T03:24:44.272Z,92.9
2017-11-19T03:25:45.770Z,93.1
2017-11-19T03:26:47.244Z,92.8
2017-11-19T03:27:48.740Z,92.7
2017-11-19T03:28:50.227Z,92.7
2017-11-19T03:29:51.707Z,92.5
2017-11-19T03:30:53.202Z,92.5
2017-11-19T03:31:55.292Z,91.9
2017-11-19T03:32:56.818Z,92.3
2017-11-19T03:33:58.335Z,92.3
2017-11-19T03:34:59.823Z,92.3
2017-11-19T03:36:01.331Z,92.5
2017-11-19T03:37:02.846Z,92.2
2017-11-19T03:38:04.317Z,92.3
2017-11-19T03:39:05.795Z,92.3
2017-11-19T03:40:07.292Z,92.5
2017-11-19T03:41:08.781Z,91.9
2017-11-19T03:42:10.321Z,91.7
2017-11-19T03:43:11.825Z,92.2
2017-11-19T03:44:13.313Z,91.8
2017-11-19T03:45:14.795Z,92.0
2017-11-19T03:46:16.267Z,91.8
2017-11-19T03:47:17.756Z,91.8
2017-11-19T03:48:19.296Z,92.2
2017-11-19T03:49:20.802Z,92.0
2017-11-19T03:50:23.301Z,92.2
2017-11-19T03:51:24.800Z,92.0
2017-11-19T03:52:26.304Z,91.7
2017-11-19T03:53:27.832Z,91.9
2017-11-19T03:54:29.320Z,91.8
2017-11-19T03:55:30.836Z,91.9
2017-11-19T03:56:32.400Z,91.8
2017-11-19T03:57:33.896Z,92.0
2017-11-19T03:58:35.415Z,91.9
2017-11-19T03:59:36.980Z,91.8
2017-11-19T04:00:38.475Z,91.8
2017-11-19T04:01:39.965Z,92.0
2017-11-19T04:02:41.476Z,91.8
2017-11-19T04:03:42.960Z,91.7
2017-11-19T04:04:44.460Z,91.7
2017-11-19T04:05:45.999Z,91.9
2017-11-19T04:06:47.514Z,91.8
2017-11-19T04:07:49.043Z,91.9
2017-11-19T04:08:50.557Z,91.9
2017-11-19T04:09:52.071Z,91.9
2017-11-19T04:10:53.616Z,91.9
2017-11-19T04:11:55.137Z,91.9
2017-11-19T04:12:56.639Z,92.0
2017-11-19T04:13:58.122Z,91.9
2017-11-19T04:14:59.631Z,91.9
2017-11-19T04:16:01.201Z,92.1
2017-11-19T04:17:02.717Z,91.8
2017-11-19T04:18:04.249Z,91.8
2017-11-19T04:19:05.752Z,92.1
2017-11-19T04:20:07.328Z,91.9
2017-11-19T04:21:08.832Z,92.1
2017-11-19T04:22:10.362Z,92.0
2017-11-19T04:23:11.896Z,91.9
2017-11-19T04:24:13.397Z,91.6
2017-11-19T04:25:14.927Z,92.0
2017-11-19T04:26:17.292Z,91.6
2017-11-19T04:27:18.806Z,91.8
2017-11-19T04:28:20.312Z,92.0
2017-11-19T04:29:21.809Z,92.0
2017-11-19T04:30:23.304Z,91.6
2017-11-19T04:31:24.817Z,91.9
2017-11-19T04:32:26.295Z,91.3
2017-11-19T04:33:27.783Z,91.6
2017-11-19T04:34:29.333Z,91.6
2017-11-19T04:35:30.827Z,91.4
2017-11-19T04:36:32.335Z,91.3
2017-11-19T04:37:33.833Z,91.5
2017-11-19T04:38:35.356Z,91.3
2017-11-19T04:39:36.894Z,91.7
2017-11-19T04:40:38.399Z,91.2
2017-11-19T04:41:39.900Z,91.0
2017-11-19T04:42:41.402Z,91.0
2017-11-19T04:43:42.917Z,91.1
2017-11-19T04:44:44.423Z,91.0
2017-11-19T04:45:45.948Z,91.2
2017-11-19T04:46:47.487Z,91.1
2017-11-19T04:47:48.974Z,91.1
2017-11-19T04:48:50.471Z,91.0
2017-11-19T04:49:52.021Z,91.0
2017-11-19T04:50:53.545Z,91.2
2017-11-19T04:51:55.351Z,91.0
2017-11-19T04:52:56.835Z,91.2
2017-11-19T04:53:58.348Z,91.7
2017-11-19T04:54:59.836Z,91.9
2017-11-19T04:56:01.348Z,91.5
2017-11-19T04:57:02.844Z,91.4
2017-11-19T04:58:04.324Z,91.7
2017-11-19T04:59:05.799Z,91.2
2017-11-19T05:00:07.350Z,91.0
2017-11-19T05:01:08.935Z,91.1
2017-11-19T05:02:10.416Z,91.3
2017-11-19T05:03:11.922Z,91.3
2017-11-19T05:04:13.426Z,91.4
2017-11-19T05:05:14.952Z,91.5
2017-11-19T05:06:16.459Z,91.3
2017-11-19T05:07:17.943Z,91.6
2017-11-19T05:08:19.452Z,90.8
2017-11-19T05:09:21.010Z,90.6
2017-11-19T05:10:22.512Z,90.7
2017-11-19T05:11:24.048Z,90.8
2017-11-19T05:12:25.530Z,90.8
2017-11-19T05:13:27.050Z,90.8
2017-11-19T05:14:28.557Z,90.8
2017-11-19T05:15:30.062Z,90.6
2017-11-19T05:16:31.572Z,90.6
2017-11-19T05:17:33.075Z,90.9
2017-11-19T05:18:34.559Z,90.7
2017-11-19T05:19:36.031Z,90.5
2017-11-19T05:20:37.505Z,90.6
2017-11-19T05:21:39.039Z,90.5
2017-11-19T05:22:40.520Z,90.4
2017-11-19T05:23:42.038Z,90.5
2017-11-19T05:24:43.563Z,90.5
2017-11-19T05:25:45.049Z,90.0
2017-11-19T05:26:46.578Z,90.1
2017-11-19T05:27:48.131Z,90.0
2017-11-19T05:28:49.636Z,90.3
2017-11-19T05:29:51.116Z,90.2
2017-11-19T05:30:52.618Z,90.0
2017-11-19T05:31:54.119Z,90.2
2017-11-19T05:32:55.632Z,90.2
2017-11-19T05:33:57.127Z,90.3
2017-11-19T05:34:58.614Z,89.8
2017-11-19T05:36:00.165Z,90.0
2017-11-19T05:37:01.654Z,89.9
2017-11-19T05:38:03.172Z,90.0
2017-11-19T05:39:04.668Z,90.1
2017-11-19T05:40:06.181Z,89.8
2017-11-19T05:41:07.691Z,89.9
2017-11-19T05:42:09.188Z,89.8
2017-11-19T05:43:10.680Z,89.7
2017-11-19T05:44:12.168Z,89.7
2017-11-19T05:45:13.711Z,89.6
2017-11-19T05:46:15.205Z,89.6
2017-11-19T05:47:16.723Z,89.6
2017-11-19T05:48:18.246Z,89.4
2017-11-19T05:49:19.737Z,89.4
2017-11-19T05:50:21.250Z,89.5
2017-11-19T05:51:22.722Z,89.6
2017-11-19T05:52:24.238Z,89.5
2017-11-19T05:53:25.759Z,89.3
2017-11-19T05:54:27.210Z,89.4
2017-11-19T05:55:28.664Z,89.8
2017-11-19T05:56:30.153Z,89.8
2017-11-19T05:57:31.661Z,89.6
2017-11-19T05:58:33.138Z,89.4
2017-11-19T05:59:34.614Z,89.1
2017-11-19T06:00:36.123Z,89.1
2017-11-19T06:01:37.635Z,89.2
2017-11-19T06:02:39.141Z,89.2
2017-11-19T06:03:40.664Z,89.1
2017-11-19T06:04:42.131Z,89.3
2017-11-19T06:05:43.601Z,89.0
2017-11-19T06:06:45.095Z,89.0
2017-11-19T06:07:47.038Z,89.0
2017-11-19T06:08:48.533Z,89.1
2017-11-19T06:09:50.055Z,89.3
2017-11-19T06:10:51.501Z,89.3
2017-11-19T06:11:52.985Z,89.1
2017-11-19T06:12:54.452Z,89.0
2017-11-19T06:13:55.940Z,89.7
2017-11-19T06:14:57.431Z,89.2
2017-11-19T06:15:58.937Z,89.7
2017-11-19T06:17:00.491Z,89.3
2017-11-19T06:18:01.993Z,89.4
2017-11-19T06:19:03.505Z,89.6
2017-11-19T06:20:05.029Z,89.6
2017-11-19T06:21:06.737Z,89.8
2017-11-19T06:22:08.306Z,89.8
2017-11-19T06:23:09.804Z,89.9
2017-11-19T06:24:11.342Z,89.9
2017-11-19T06:25:12.870Z,90.1
2017-11-19T06:26:14.375Z,89.9
2017-11-19T06:27:15.885Z,90.1
2017-11-19T06:28:17.427Z,90.4
2017-11-19T06:29:19.034Z,90.6
2017-11-19T06:30:20.506Z,90.5
2017-11-19T06:31:22.151Z,90.9
2017-11-19T06:32:23.696Z,90.6
2017-11-19T06:33:25.170Z,91.5
2017-11-19T06:34:26.635Z,91.0
2017-11-19T06:35:28.131Z,91.5
2017-11-19T06:36:29.649Z,91.3
2017-11-19T06:37:31.150Z,91.6
2017-11-19T06:38:32.642Z,91.5
2017-11-19T06:39:34.135Z,92.0
2017-11-19T06:40:35.633Z,91.8
2017-11-19T06:41:37.116Z,91.7
2017-11-19T06:42:38.925Z,92.0
2017-11-19T06:43:40.512Z,92.0
2017-11-19T06:44:42.011Z,91.9
2017-11-19T06:45:43.816Z,91.9
2017-11-19T06:46:45.287Z,91.9
2017-11-19T06:47:47.560Z,91.9
2017-11-19T06:48:49.164Z,91.9
2017-11-19T06:49:50.645Z,92.3
2017-11-19T06:50:52.273Z,92.6
2017-11-19T06:51:53.861Z,91.9
2017-11-19T06:52:55.332Z,91.9
2017-11-19T06:53:56.867Z,92.5
2017-11-19T06:54:58.344Z,92.4
2017-11-19T06:55:59.861Z,92.6
2017-11-19T06:57:01.365Z,92.6
2017-11-19T06:58:02.826Z,91.9
2017-11-19T06:59:04.431Z,91.9
2017-11-19T07:00:06.535Z,91.9
2017-11-19T07:01:08.021Z,91.9
2017-11-19T07:02:09.526Z,91.8
2017-11-19T07:03:12.186Z,91.9
2017-11-19T07:04:13.674Z,92.0
2017-11-19T07:05:15.200Z,91.7
2017-11-19T07:06:16.698Z,91.9
2017-11-19T07:07:18.322Z,91.9
2017-11-19T07:08:19.847Z,91.9
2017-11-19T07:09:21.404Z,91.8
2017-11-19T07:10:22.924Z,92.0
2017-11-19T07:11:24.417Z,91.8
2017-11-19T07:12:25.916Z,91.9
2017-11-19T07:13:27.587Z,91.9
2017-11-19T07:14:29.215Z,91.9
2017-11-19T07:15:30.743Z,91.9
2017-11-19T07:16:32.291Z,91.8
2017-11-19T07:17:33.794Z,91.4
2017-11-19T07:18:35.322Z,91.7
2017-11-19T07:19:36.865Z,91.5
2017-11-19T07:20:38.387Z,91.5
2017-11-19T07:21:39.948Z,91.6
2017-11-19T07:22:41.534Z,91.9
2017-11-19T07:23:43.005Z,91.4
2017-11-19T07:24:44.517Z,91.7
2017-11-19T07:25:45.998Z,91.3
2017-11-19T07:26:47.499Z,91.4
2017-11-19T07:27:48.992Z,91.6
2017-11-19T07:28:50.463Z,91.6
2017-11-19T07:29:51.926Z,91.6
2017-11-19T07:30:53.398Z,91.6
2017-11-19T07:31:54.834Z,91.6
2017-11-19T07:32:56.293Z,91.4
2017-11-19T07:33:57.740Z,91.5
2017-11-19T07:34:59.415Z,91.5
2017-11-19T07:36:01.186Z,91.5
2017-11-19T07:37:02.641Z,91.5
2017-11-19T07:38:04.632Z,91.6
2017-11-19T07:39:06.121Z,91.8
2017-11-19T07:40:07.622Z,91.5
2017-11-19T07:41:09.078Z,91.5
2017-11-19T07:42:10.663Z,91.4
2017-11-19T07:43:12.155Z,91.6
2017-11-19T07:44:13.665Z,91.9
2017-11-19T07:45:15.158Z,91.5
2017-11-19T07:46:16.644Z,91.6
2017-11-19T07:47:18.151Z,91.3
2017-11-19T07:48:19.642Z,91.5
2017-11-19T07:49:21.162Z,91.6
2017-11-19T07:50:22.673Z,91.6
2017-11-19T07:51:24.168Z,91.3
2017-11-19T07:52:25.650Z,91.5
2017-11-19T07:53:27.111Z,91.5
2017-11-19T07:54:28.609Z,91.2
2017-11-19T07:55:30.046Z,91.3
2017-11-19T07:56:31.559Z,91.8
2017-11-19T07:57:33.053Z,92.0
2017-11-19T07:58:34.562Z,91.8
2017-11-19T07:59:36.040Z,92.0
2017-11-19T08:00:37.503Z,91.3
2017-11-19T08:01:39.007Z,91.3
2017-11-19T08:02:40.491Z,91.5
2017-11-19T08:03:42.021Z,91.2
2017-11-19T08:04:43.511Z,91.3
2017-11-19T08:05:45.036Z,91.9
2017-11-19T08:06:46.493Z,91.7
2017-11-19T08:07:47.966Z,91.6
2017-11-19T08:08:49.459Z,91.1
2017-11-19T08:09:50.902Z,91.8
2017-11-19T08:10:52.363Z,91.7
2017-11-19T08:11:53.814Z,91.6
2017-11-19T08:12:55.298Z,91.5
2017-11-19T08:13:56.781Z,91.6
2017-11-19T08:14:58.275Z,91.3
2017-11-19T08:15:59.772Z,91.8
2017-11-19T08:17:01.258Z,91.7
2017-11-19T08:18:02.775Z,91.7
2017-11-19T08:19:04.331Z,91.8
2017-11-19T08:20:05.823Z,91.8
2017-11-19T08:21:07.347Z,91.4
2017-11-19T08:22:08.876Z,91.4
2017-11-19T08:23:10.766Z,91.8
2017-11-19T08:24:12.286Z,91.9
2017-11-19T08:25:13.849Z,91.4
2017-11-19T08:26:15.826Z,91.8
2017-11-19T08:27:17.510Z,91.7
2017-11-19T08:28:19.007Z,91.8
2017-11-19T08:29:20.473Z,91.6
2017-11-19T08:30:21.945Z,91.5
2017-11-19T08:31:23.479Z,91.7
2017-11-19T08:32:24.938Z,91.5
2017-11-19T08:33:26.429Z,91.7
2017-11-19T08:34:27.991Z,92.0
2017-11-19T08:35:29.450Z,92.1
2017-11-19T08:36:30.938Z,91.7
2017-11-19T08:37:32.393Z,91.7
2017-11-19T08:38:33.939Z,92.0
2017-11-19T08:39:35.492Z,91.6
2017-11-19T08:40:37.032Z,91.8
2017-11-19T08:41:38.570Z,92.1
2017-11-19T08:42:40.342Z,92.0
2017-11-19T08:43:41.914Z,92.5
2017-11-19T08:44:43.531Z,92.6
2017-11-19T08:45:45.076Z,92.0
2017-11-19T08:46:46.597Z,92.6
2017-11-19T08:47:48.266Z,92.5
2017-11-19T08:48:49.801Z,92.6
2017-11-19T08:49:51.384Z,92.4
2017-11-19T08:50:52.918Z,92.7
2017-11-19T08:51:54.805Z,92.7
2017-11-19T08:53:35.983Z,92.0
2017-11-19T08:54:37.378Z,92.1
2017-11-19T08:55:38.886Z,91.9
2017-11-19T08:56:40.304Z,91.8
2017-11-19T08:57:41.709Z,91.8
2017-11-19T08:58:43.136Z,92.0
2017-11-19T08:59:44.846Z,92.1
2017-11-19T09:00:46.417Z,91.8
2017-11-19T09:01:48.423Z,91.9
2017-11-19T09:02:50.177Z,91.7
2017-11-19T09:03:51.774Z,91.7
2017-11-19T09:04:53.313Z,91.1
2017-11-19T09:05:54.859Z,91.1
2017-11-19T09:06:56.385Z,91.1
2017-11-19T09:07:57.922Z,91.1
2017-11-19T09:08:59.580Z,91.9
2017-11-19T09:10:01.404Z,91.3
2017-11-19T09:11:02.873Z,91.4
2017-11-19T09:12:04.417Z,91.8
2017-11-19T09:13:06.028Z,91.3
2017-11-19T09:14:07.624Z,91.2
2017-11-19T09:15:09.153Z,91.7
2017-11-19T09:16:10.694Z,91.3
2017-11-19T09:17:12.221Z,91.8
2017-11-19T09:18:13.753Z,91.4
2017-11-19T09:19:15.264Z,91.4
2017-11-19T09:20:16.776Z,91.8
2017-11-19T09:21:18.306Z,91.7
2017-11-19T09:22:19.950Z,91.8
2017-11-19T09:23:21.520Z,91.6
2017-11-19T09:24:23.291Z,91.6
2017-11-19T09:25:24.876Z,91.6
2017-11-19T09:26:26.616Z,91.2
2017-11-19T09:27:28.203Z,91.6
2017-11-19T09:28:29.718Z,92.0
2017-11-19T09:29:31.242Z,91.2
2017-11-19T09:30:32.763Z,91.1
2017-11-19T09:31:34.562Z,91.4
2017-11-19T09:32:36.117Z,91.2
2017-11-19T09:33:37.694Z,91.6
2017-11-19T09:34:39.211Z,91.1
2017-11-19T09:35:40.752Z,91.3
2017-11-19T09:36:42.391Z,91.2
2017-11-19T09:37:43.942Z,91.4
2017-11-19T09:38:45.857Z,91.3
2017-11-19T09:39:47.403Z,91.0
2017-11-19T09:40:48.917Z,91.0
2017-11-19T09:41:50.468Z,90.8
2017-11-19T09:42:52.036Z,90.9
2017-11-19T09:43:53.546Z,90.8
2017-11-19T09:44:55.060Z,91.1
2017-11-19T09:45:56.583Z,91.0
2017-11-19T09:46:58.107Z,90.9
2017-11-19T09:47:59.638Z,90.7
2017-11-19T09:49:01.189Z,90.5
2017-11-19T09:50:02.801Z,90.0
2017-11-19T09:51:04.424Z,90.0
2017-11-19T09:52:05.877Z,89.4
2017-11-19T09:53:07.381Z,89.9
2017-11-19T09:54:08.943Z,89.6
2017-11-19T09:55:10.447Z,90.0
2017-11-19T09:56:12.066Z,89.9
2017-11-19T09:57:13.572Z,89.9
2017-11-19T09:58:15.079Z,89.7
2017-11-19T09:59:16.565Z,89.4
2017-11-19T10:00:18.072Z,89.6
2017-11-19T10:01:19.570Z,89.8
2017-11-19T10:02:21.069Z,89.6
2017-11-19T10:03:22.602Z,89.4
2017-11-19T10:04:24.101Z,89.3
2017-11-19T10:05:25.586Z,89.1
2017-11-19T10:06:27.128Z,89.0
2017-11-19T10:07:28.618Z,89.4
2017-11-19T10:08:30.138Z,89.3
2017-11-19T10:09:31.644Z,89.0
2017-11-19T10:10:33.179Z,89.4
2017-11-19T10:11:34.662Z,88.8
2017-11-19T10:12:36.202Z,88.5
2017-11-19T10:13:37.717Z,88.5
2017-11-19T10:14:39.165Z,88.0
2017-11-19T10:15:40.705Z,88.7
2017-11-19T10:16:42.247Z,87.9
2017-11-19T10:17:43.753Z,88.5
2017-11-19T10:18:45.301Z,88.1
2017-11-19T10:19:46.861Z,87.8
2017-11-19T10:20:48.318Z,88.2
2017-11-19T10:21:49.849Z,88.0
2017-11-19T10:22:51.346Z,87.5
2017-11-19T10:23:52.866Z,88.0
2017-11-19T10:24:54.347Z,87.7
2017-11-19T10:25:55.875Z,87.9
2017-11-19T10:26:57.412Z,87.6
2017-11-19T10:27:58.929Z,87.3
2017-11-19T10:29:00.446Z,87.0
2017-11-19T10:30:02.023Z,87.2
2017-11-19T10:31:03.550Z,86.8
2017-11-19T10:32:05.107Z,86.9
2017-11-19T10:33:06.631Z,87.0
2017-11-19T10:34:08.190Z,87.2
2017-11-19T10:35:09.753Z,86.9
2017-11-19T10:36:11.304Z,86.8
2017-11-19T10:37:12.816Z,86.6
2017-11-19T10:38:14.349Z,86.1
2017-11-19T10:39:15.853Z,86.2
2017-11-19T10:40:17.414Z,86.5
2017-11-19T10:41:18.955Z,86.4
2017-11-19T10:42:20.502Z,86.4
2017-11-19T10:43:21.980Z,86.3
2017-11-19T10:44:23.534Z,86.8
2017-11-19T10:45:25.085Z,86.2
2017-11-19T10:46:26.630Z,86.4
2017-11-19T10:47:28.196Z,86.5
2017-11-19T10:48:29.695Z,86.0
2017-11-19T10:49:31.217Z,85.8
2017-11-19T10:50:32.690Z,85.1
2017-11-19T10:51:34.205Z,85.7
2017-11-19T10:52:35.712Z,85.4
2017-11-19T10:53:37.230Z,85.7
2017-11-19T10:54:38.743Z,86.3
2017-11-19T10:55:40.300Z,85.4
2017-11-19T10:56:41.784Z,85.3
2017-11-19T10:57:43.319Z,85.4
2017-11-19T10:58:44.877Z,85.3
2017-11-19T10:59:46.351Z,85.2
2017-11-19T11:00:47.849Z,85.1
2017-11-19T11:01:49.370Z,85.1
2017-11-19T11:02:50.858Z,84.5
2017-11-19T11:03:52.399Z,84.6
2017-11-19T11:04:53.966Z,85.1
2017-11-19T11:05:55.458Z,85.1
2017-11-19T11:06:57.013Z,85.5
2017-11-19T11:07:58.582Z,85.0
2017-11-19T11:09:00.065Z,85.2
2017-11-19T11:10:01.546Z,85.1
2017-11-19T11:11:03.144Z,84.9
2017-11-19T11:12:04.669Z,85.6
2017-11-19T11:13:07.249Z,85.3
2017-11-19T11:14:08.821Z,85.4
2017-11-19T11:15:10.450Z,85.4
2017-11-19T11:16:12.027Z,85.2
2017-11-19T11:17:13.608Z,84.6
2017-11-19T11:18:15.218Z,84.9
2017-11-19T11:19:17.342Z,84.6
2017-11-19T11:20:18.862Z,84.1
2017-11-19T11:21:20.436Z,84.0
2017-11-19T11:22:22.298Z,84.0
2017-11-19T11:23:23.832Z,83.6
2017-11-19T11:24:25.348Z,84.2
2017-11-19T11:25:26.916Z,84.0
2017-11-19T11:26:28.456Z,84.3
2017-11-19T11:27:30.017Z,84.0
2017-11-19T11:28:31.575Z,83.9
2017-11-19T11:29:33.129Z,83.9
2017-11-19T11:30:34.655Z,83.8
2017-11-19T11:31:36.221Z,82.6
2017-11-19T11:32:37.766Z,82.9
2017-11-19T11:33:39.441Z,83.7
2017-11-19T11:34:41.125Z,83.2
2017-11-19T11:35:42.632Z,83.0
2017-11-19T11:36:44.200Z,83.1
2017-11-19T11:37:45.729Z,82.5
2017-11-19T11:38:47.298Z,82.1
2017-11-19T11:39:48.833Z,82.3
2017-11-19T11:40:50.387Z,81.8
2017-11-19T11:41:51.947Z,81.6
2017-11-19T11:42:53.479Z,81.8
2017-11-19T11:43:54.994Z,81.7
2017-11-19T11:44:56.533Z,81.8
2017-11-19T11:45:58.055Z,81.7
2017-11-19T11:46:59.619Z,81.7
2017-11-19T11:48:01.140Z,81.8
2017-11-19T11:49:02.731Z,81.5
2017-11-19T11:50:04.304Z,81.2
2017-11-19T11:51:05.880Z,80.9
2017-11-19T11:52:07.438Z,81.0
2017-11-19T11:53:08.970Z,81.0
2017-11-19T11:54:10.456Z,81.0
2017-11-19T11:55:11.994Z,81.5
2017-11-19T11:56:13.575Z,81.4
2017-11-19T11:57:15.095Z,81.5
2017-11-19T11:58:16.680Z,81.1
2017-11-19T11:59:18.223Z,81.2
2017-11-19T12:00:19.746Z,81.2
2017-11-19T12:01:21.237Z,81.1
2017-11-19T12:02:22.796Z,81.2
2017-11-19T12:03:24.308Z,81.3
2017-11-19T12:04:26.173Z,81.2
2017-11-19T12:05:27.802Z,81.3
2017-11-19T12:06:30.071Z,81.3
2017-11-19T12:07:35.880Z,81.4
2017-11-19T12:08:37.265Z,81.2
2017-11-19T12:09:39.044Z,80.6
2017-11-19T12:10:40.566Z,80.5
2017-11-19T12:11:42.115Z,80.4
2017-11-19T12:12:43.693Z,79.6
2017-11-19T12:13:45.332Z,79.9
2017-11-19T12:14:46.848Z,80.6
2017-11-19T12:15:48.523Z,80.4
2017-11-19T12:16:50.130Z,80.6
2017-11-19T12:17:51.702Z,80.6
2017-11-19T12:18:53.347Z,80.2
2017-11-19T12:19:54.979Z,80.4
2017-11-19T12:20:56.568Z,80.5
2017-11-19T12:21:58.318Z,80.7
2017-11-19T12:23:00.167Z,80.5
2017-11-19T12:24:01.687Z,80.4
2017-11-19T12:25:03.562Z,80.8
2017-11-19T12:26:05.155Z,80.6
2017-11-19T12:27:07.373Z,80.6
2017-11-19T12:28:08.981Z,80.3
2017-11-19T12:29:10.949Z,80.0
2017-11-19T12:30:12.527Z,80.5
2017-11-19T12:31:14.098Z,80.3
2017-11-19T12:32:15.748Z,80.8
2017-11-19T12:33:17.263Z,80.4
2017-11-19T12:34:18.788Z,80.2
2017-11-19T12:35:20.312Z,79.8
2017-11-19T12:36:21.873Z,80.3
2017-11-19T12:37:23.416Z,80.1
2017-11-19T12:38:24.969Z,80.0
2017-11-19T12:39:26.515Z,79.9
2017-11-19T12:40:28.070Z,79.4
2017-11-19T12:41:29.547Z,79.6
2017-11-19T12:42:31.057Z,79.7
2017-11-19T12:43:32.602Z,79.0
2017-11-19T12:44:34.139Z,80.0
2017-11-19T12:45:35.644Z,79.5
2017-11-19T12:46:37.199Z,79.5
2017-11-19T12:47:38.838Z,80.1
2017-11-19T12:48:40.374Z,79.7
2017-11-19T12:49:41.931Z,79.7
2017-11-19T12:50:43.512Z,79.9
2017-11-19T12:51:45.012Z,80.2
2017-11-19T12:52:46.540Z,79.8
2017-11-19T12:53:48.115Z,80.1
2017-11-19T12:54:49.614Z,80.2
2017-11-19T12:55:51.171Z,79.5
2017-11-19T12:56:52.762Z,79.4
2017-11-19T12:57:54.343Z,79.2
2017-11-19T12:58:55.903Z,79.7
2017-11-19T12:59:57.477Z,79.7
2017-11-19T13:00:59.043Z,80.2
2017-11-19T13:02:00.583Z,80.7
2017-11-19T13:03:02.121Z,80.0
2017-11-19T13:04:03.798Z,79.3
2017-11-19T13:05:05.353Z,78.9
2017-11-19T13:06:06.924Z,79.4
2017-11-19T13:07:08.566Z,79.7
2017-11-19T13:08:10.112Z,80.6
2017-11-19T13:09:11.711Z,80.4
2017-11-19T13:10:13.250Z,81.4
2017-11-19T13:11:14.907Z,82.5
2017-11-19T13:12:16.496Z,83.2
2017-11-19T13:13:17.987Z,84.0
2017-11-19T13:14:20.490Z,84.7
2017-11-19T13:15:22.116Z,85.3
2017-11-19T13:16:23.748Z,85.3
2017-11-19T13:18:05.419Z,86.6
2017-11-19T13:19:06.944Z,87.1
2017-11-19T13:20:08.429Z,87.0
2017-11-19T13:21:09.942Z,87.7
2017-11-19T13:22:11.456Z,87.6
2017-11-19T13:23:13.032Z,88.6
2017-11-19T13:24:14.581Z,88.0
2017-11-19T13:25:16.146Z,88.2
2017-11-19T13:26:17.750Z,88.7
2017-11-19T13:27:19.314Z,88.9
2017-11-19T13:28:20.923Z,89.3
2017-11-19T13:29:22.541Z,89.2
2017-11-19T13:30:24.087Z,89.1
2017-11-19T13:31:25.629Z,89.5
2017-11-19T13:32:27.201Z,90.1
2017-11-19T13:33:28.794Z,89.7
2017-11-19T13:34:30.372Z,89.8
2017-11-19T13:35:31.949Z,90.3
2017-11-19T13:36:33.540Z,90.6
2017-11-19T13:37:35.106Z,90.9
2017-11-19T13:38:36.666Z,90.7
2017-11-19T13:39:38.273Z,90.7
2017-11-19T13:40:39.883Z,90.3